createdAt,value
2019-02-24T00:04:20.014Z,19.03
2019-02-24T00:09:24.031Z,16.47
2019-02-24T00:14:28.076Z,18.13
2019-02-24T00:19:32.101Z,17.97
2019-02-24T00:24:36.109Z,15.97
2019-02-24T00:29:40.133Z,17.73
2019-02-24T00:34:44.175Z,16.57
2019-02-24T00:39:48.193Z,17.50
2019-02-24T00:44:52.209Z,17.30
2019-02-24T00:49:56.231Z,17.63
2019-02-24T00:55:00.356Z,17.43
2019-02-24T01:00:04.783Z,17.60
2019-02-24T01:05:09.006Z,18.20
2019-02-24T01:10:13.076Z,18.80
2019-02-24T01:15:17.116Z,17.47
2019-02-24T01:20:21.131Z,18.57
2019-02-24T01:25:25.155Z,16.97
2019-02-24T01:30:29.167Z,18.33
2019-02-24T01:35:33.192Z,20.23
2019-02-24T01:40:37.288Z,17.67
2019-02-24T01:45:41.318Z,19.10
2019-02-24T01:50:45.332Z,18.63
2019-02-24T01:55:49.344Z,17.90
2019-02-24T02:00:53.356Z,18.77
2019-02-24T02:05:57.375Z,18.10
2019-02-24T02:11:01.418Z,17.63
2019-02-24T02:16:05.427Z,18.77
2019-02-24T02:21:09.542Z,19.67
2019-02-24T02:26:13.562Z,20.70
2019-02-24T02:31:17.582Z,19.30
2019-02-24T02:36:21.609Z,18.53
2019-02-24T02:41:25.619Z,19.07
2019-02-24T02:46:29.631Z,17.63
2019-02-24T02:51:33.666Z,18.63
2019-02-24T02:56:37.677Z,18.73
2019-02-24T03:01:41.700Z,18.00
2019-02-24T03:07:23.018Z,18.57
2019-02-24T03:12:27.041Z,19.27
2019-02-24T03:17:31.046Z,18.23
2019-02-24T03:22:35.069Z,18.77
2019-02-24T03:27:39.110Z,18.87
2019-02-24T03:32:43.174Z,19.70
2019-02-24T03:37:47.186Z,17.47
2019-02-24T03:42:51.207Z,16.23
2019-02-24T03:47:55.228Z,15.47
2019-02-24T03:52:59.268Z,13.27
2019-02-24T03:58:03.312Z,12.83
2019-02-24T04:03:07.298Z,11.87
2019-02-24T04:08:11.325Z,11.33
2019-02-24T04:13:15.349Z,12.43
2019-02-24T04:18:19.386Z,12.37
2019-02-24T04:23:23.418Z,12.70
2019-02-24T04:28:27.438Z,12.10
2019-02-24T04:33:31.490Z,12.90
2019-02-24T04:38:35.497Z,12.30
2019-02-24T04:43:39.528Z,12.50
2019-02-24T04:48:43.539Z,13.03
2019-02-24T04:53:47.562Z,12.40
2019-02-24T04:58:51.564Z,11.60
2019-02-24T05:03:55.602Z,12.57
2019-02-24T05:08:59.622Z,13.07
2019-02-24T05:14:03.640Z,12.27
2019-02-24T05:19:07.698Z,12.33
2019-02-24T05:24:11.816Z,13.60
2019-02-24T05:29:15.835Z,12.73
2019-02-24T05:34:19.852Z,12.80
2019-02-24T05:39:23.884Z,12.37
2019-02-24T05:44:27.896Z,13.03
2019-02-24T05:49:31.918Z,13.47
2019-02-24T05:54:35.951Z,14.37
2019-02-24T05:59:39.959Z,14.90
2019-02-24T06:04:43.952Z,14.50
2019-02-24T06:09:47.970Z,14.53
2019-02-24T06:14:51.986Z,14.77
2019-02-24T06:19:56.009Z,15.47
2019-02-24T06:25:00.025Z,15.87
2019-02-24T06:30:05.312Z,16.03
2019-02-24T06:35:09.843Z,16.93
2019-02-24T06:40:13.867Z,16.37
2019-02-24T06:45:17.893Z,16.90
2019-02-24T06:50:21.900Z,15.60
2019-02-24T06:55:25.910Z,15.20
2019-02-24T07:00:29.928Z,15.53
2019-02-24T07:05:33.961Z,15.40
2019-02-24T07:10:37.965Z,15.40
2019-02-24T07:15:41.987Z,15.07
2019-02-24T07:20:46.049Z,15.37
2019-02-24T07:25:50.064Z,15.83
2019-02-24T07:30:54.083Z,15.90
2019-02-24T07:35:58.108Z,16.23
2019-02-24T07:41:02.121Z,14.73
2019-02-24T07:46:06.174Z,16.63
2019-02-24T07:51:10.225Z,17.63
2019-02-24T07:56:14.267Z,17.63
2019-02-24T08:01:18.278Z,17.20
2019-02-24T08:06:22.311Z,18.07
2019-02-24T08:11:26.350Z,17.73
2019-02-24T08:16:30.372Z,16.50
2019-02-24T08:21:34.379Z,16.50
2019-02-24T08:26:38.401Z,16.10
2019-02-24T08:31:42.471Z,16.27
2019-02-24T08:36:46.584Z,16.57
2019-02-24T08:41:50.594Z,14.83
2019-02-24T08:46:54.613Z,15.87
2019-02-24T08:51:58.635Z,15.73
2019-02-24T08:57:02.669Z,15.30
2019-02-24T09:02:06.729Z,16.53
2019-02-24T09:07:10.745Z,17.80
2019-02-24T09:12:15.011Z,16.20
2019-02-24T09:17:19.055Z,15.30
2019-02-24T09:22:23.120Z,16.77
2019-02-24T09:27:27.185Z,15.33
2019-02-24T09:32:31.183Z,13.33
2019-02-24T09:37:35.216Z,15.07
2019-02-24T09:42:39.242Z,13.50
2019-02-24T09:47:46.801Z,13.77
2019-02-24T09:52:49.004Z,14.50
2019-02-24T09:57:53.046Z,13.27
2019-02-24T10:02:57.703Z,13.23
2019-02-24T10:08:01.761Z,12.47
2019-02-24T10:13:05.781Z,12.63
2019-02-24T10:18:09.850Z,12.83
2019-02-24T10:23:13.879Z,12.83
2019-02-24T10:28:17.950Z,12.47
2019-02-24T10:33:21.916Z,12.03
2019-02-24T10:38:25.942Z,11.77
2019-02-24T10:43:29.972Z,12.03
2019-02-24T10:48:33.998Z,12.07
2019-02-24T10:53:38.044Z,10.53
2019-02-24T10:58:42.073Z,11.38
2019-02-24T11:03:46.129Z,10.95
2019-02-24T11:08:50.155Z,9.95
2019-02-24T11:13:54.184Z,10.58
2019-02-24T11:18:58.241Z,9.58
2019-02-24T11:24:02.262Z,9.85
2019-02-24T11:29:06.285Z,10.55
2019-02-24T11:34:10.311Z,8.08
2019-02-24T11:39:14.341Z,8.43
2019-02-24T11:44:18.365Z,7.60
2019-02-24T11:49:24.060Z,6.03
2019-02-24T11:54:28.203Z,7.33
2019-02-24T11:59:32.212Z,6.80
2019-02-24T12:04:36.246Z,6.47
2019-02-24T12:09:40.278Z,7.37
2019-02-24T12:14:44.304Z,12.73
2019-02-24T12:19:48.355Z,7.40
2019-02-24T12:24:52.405Z,6.28
2019-02-24T12:29:56.454Z,7.03
2019-02-24T12:35:00.493Z,6.53
2019-02-24T12:40:05.011Z,6.22
2019-02-24T12:45:09.075Z,7.20
2019-02-24T12:50:13.148Z,6.67
2019-02-24T12:55:17.478Z,6.47
2019-02-24T13:00:21.599Z,6.10
2019-02-24T13:05:25.654Z,6.37
2019-02-24T13:10:29.704Z,6.00
2019-02-24T13:15:33.731Z,6.45
2019-02-24T13:20:37.777Z,6.42
2019-02-24T13:25:41.814Z,6.15
2019-02-24T13:30:45.850Z,6.25
2019-02-24T13:35:49.926Z,6.60
2019-02-24T13:40:53.952Z,5.75
2019-02-24T13:45:57.968Z,6.53
2019-02-24T13:51:02.032Z,7.20
2019-02-24T13:56:06.046Z,6.17
2019-02-24T14:01:10.081Z,6.55
2019-02-24T14:06:14.109Z,6.95
2019-02-24T14:11:18.216Z,6.47
2019-02-24T14:16:22.259Z,6.95
2019-02-24T14:21:26.284Z,7.40
2019-02-24T14:26:30.297Z,6.87
2019-02-24T14:31:34.308Z,5.80
2019-02-24T14:36:38.338Z,6.53
2019-02-24T14:41:42.382Z,6.35
2019-02-24T14:46:47.352Z,6.53
2019-02-24T14:51:51.399Z,6.90
2019-02-24T14:56:55.466Z,7.40
2019-02-24T15:01:59.499Z,6.83
2019-02-24T15:07:03.531Z,7.47
2019-02-24T15:12:07.561Z,6.58
2019-02-24T15:17:11.580Z,6.50
2019-02-24T15:22:15.642Z,5.95
2019-02-24T15:27:19.729Z,5.55
2019-02-24T15:32:23.778Z,5.40
2019-02-24T15:37:27.806Z,5.62
2019-02-24T15:42:31.836Z,5.40
2019-02-24T15:47:35.889Z,6.15
2019-02-24T15:52:39.937Z,6.00
2019-02-24T15:57:43.958Z,5.45
2019-02-24T16:02:48.023Z,5.80
2019-02-24T16:07:52.054Z,6.00
2019-02-24T16:12:56.093Z,5.65
2019-02-24T16:18:00.113Z,6.37
2019-02-24T16:23:04.174Z,8.38
2019-02-24T16:28:08.255Z,6.53
2019-02-24T16:33:12.309Z,6.50
2019-02-24T16:38:16.349Z,6.40
2019-02-24T16:43:20.369Z,5.87
2019-02-24T16:48:24.380Z,5.60
2019-02-24T16:53:28.423Z,5.97
2019-02-24T16:58:32.446Z,6.67
2019-02-24T17:03:36.489Z,42.43
2019-02-24T17:08:40.526Z,6.87
2019-02-24T17:13:44.757Z,7.67
2019-02-24T17:18:48.779Z,7.17
2019-02-24T17:23:52.802Z,7.53
2019-02-24T17:28:56.831Z,6.30
2019-02-24T17:34:00.919Z,11.97
2019-02-24T17:39:04.978Z,9.10
2019-02-24T17:44:09.004Z,6.97
2019-02-24T17:49:13.029Z,7.63
2019-02-24T17:54:17.067Z,6.70
2019-02-24T17:59:21.105Z,7.27
2019-02-24T18:04:25.592Z,7.37
2019-02-24T18:09:29.697Z,8.60
2019-02-24T18:14:33.741Z,8.97
2019-02-24T18:19:37.798Z,14.33
2019-02-24T18:24:41.959Z,11.57
2019-02-24T18:29:46.047Z,10.30
2019-02-24T18:34:50.137Z,9.27
2019-02-24T18:39:54.227Z,9.10
2019-02-24T18:44:58.798Z,9.03
2019-02-24T18:50:03.207Z,10.60
2019-02-24T18:55:08.096Z,10.00
2019-02-24T19:00:14.045Z,10.13
2019-02-24T19:05:18.681Z,10.73
2019-02-24T19:10:23.457Z,11.17
2019-02-24T19:15:28.313Z,10.70
2019-02-24T19:20:33.420Z,11.67
2019-02-24T19:25:38.807Z,10.67
2019-02-24T19:30:43.577Z,11.80
2019-02-24T19:35:48.772Z,10.77
2019-02-24T19:40:53.465Z,10.37
2019-02-24T19:45:58.309Z,15.30
2019-02-24T19:51:03.186Z,12.97
2019-02-24T19:56:08.152Z,11.10
2019-02-24T20:01:12.690Z,9.40
2019-02-24T20:06:17.380Z,10.17
2019-02-24T20:11:22.020Z,11.50
2019-02-24T20:16:26.623Z,11.53
2019-02-24T20:21:31.538Z,18.97
2019-02-24T20:26:35.760Z,13.70
2019-02-24T20:31:40.364Z,11.73
2019-02-24T20:36:45.152Z,13.57
2019-02-24T20:41:49.481Z,12.17
2019-02-24T20:46:53.818Z,12.37
2019-02-24T20:51:57.947Z,11.77
2019-02-24T20:57:01.992Z,13.33
2019-02-24T21:02:06.104Z,12.53
2019-02-24T21:07:10.303Z,13.77
2019-02-24T21:12:14.348Z,13.97
2019-02-24T21:17:18.382Z,15.87
2019-02-24T21:22:22.426Z,14.20
2019-02-24T21:27:26.473Z,14.00
2019-02-24T21:32:30.512Z,13.93
2019-02-24T21:37:34.565Z,14.07
2019-02-24T21:42:38.607Z,14.70
2019-02-24T21:47:42.624Z,13.30
2019-02-24T21:52:46.657Z,15.90
2019-02-24T21:57:50.693Z,13.30
2019-02-24T22:02:54.717Z,11.73
2019-02-24T22:07:58.730Z,11.47
2019-02-24T22:13:02.753Z,11.57
2019-02-24T22:18:06.818Z,13.37
2019-02-24T22:23:10.878Z,12.50
2019-02-24T22:28:15.121Z,12.40
2019-02-24T22:33:19.362Z,14.20
2019-02-24T22:38:23.570Z,12.07
2019-02-24T22:43:27.814Z,12.60
2019-02-24T22:48:32.052Z,12.10
2019-02-24T22:53:36.308Z,12.63
2019-02-24T22:58:40.530Z,12.40
2019-02-24T23:03:47.062Z,15.77
2019-02-24T23:08:51.283Z,12.47
2019-02-24T23:13:55.516Z,12.67
2019-02-24T23:18:59.754Z,12.37
2019-02-24T23:24:04.024Z,12.20
2019-02-24T23:29:08.227Z,13.43
2019-02-24T23:34:12.456Z,13.53
2019-02-24T23:39:18.141Z,13.53
2019-02-24T23:44:22.373Z,13.30
2019-02-24T23:49:26.619Z,13.27
2019-02-24T23:54:30.853Z,17.67
2019-02-24T23:59:35.080Z,17.53
